sensor_id;sensor_type;location;lat;lon;timestamp;pressure;altitude;pressure_sealevel;temperature;humidity
33859;BME280;20156;47.486;12.074;2022-11-03T00:02:02;91659.09;;;7.02;100.00
33859;BME280;20156;47.486;12.074;2022-11-03T00:04:27;91671.56;;;6.95;100.00
33859;BME280;20156;47.486;12.074;2022-11-03T00:06:54;91636.88;;;7.06;100.00
33859;BME280;20156;47.486;12.074;2022-11-03T00:09:20;91615.13;;;7.12;100.00
33859;BME280;20156;47.486;12.074;2022-11-03T00:11:47;91607.84;;;7.14;100.00
33859;BME280;20156;47.486;12.074;2022-11-03T00:14:15;91596.47;;;7.15;100.00
33859;BME280;20156;47.486;12.074;2022-11-03T00:16:41;91577.53;;;7.25;100.00
33859;BME280;20156;47.486;12.074;2022-11-03T00:19:07;91641.13;;;6.87;100.00
33859;BME280;20156;47.486;12.074;2022-11-03T00:21:33;91685.66;;;6.74;100.00
33859;BME280;20156;47.486;12.074;2022-11-03T00:23:59;91671.13;;;6.83;100.00
33859;BME280;20156;47.486;12.074;2022-11-03T00:26:28;91644.94;;;7.00;100.00
33859;BME280;20156;47.486;12.074;2022-11-03T00:28:56;91643.38;;;6.99;100.00
33859;BME280;20156;47.486;12.074;2022-11-03T00:31:24;91704.25;;;6.76;100.00
33859;BME280;20156;47.486;12.074;2022-11-03T00:33:50;91679.63;;;6.88;100.00
33859;BME280;20156;47.486;12.074;2022-11-03T00:36:18;91679.59;;;6.93;100.00
33859;BME280;20156;47.486;12.074;2022-11-03T00:38:44;91671.56;;;6.95;100.00
33859;BME280;20156;47.486;12.074;2022-11-03T00:41:11;91668.22;;;6.94;100.00
33859;BME280;20156;47.486;12.074;2022-11-03T00:43:37;91657.38;;;6.92;100.00
33859;BME280;20156;47.486;12.074;2022-11-03T00:46:03;91736.63;;;6.53;100.00
33859;BME280;20156;47.486;12.074;2022-11-03T00:48:30;91727.28;;;6.62;100.00
33859;BME280;20156;47.486;12.074;2022-11-03T00:51:03;91710.97;;;6.72;100.00
33859;BME280;20156;47.486;12.074;2022-11-03T00:53:30;91689.25;;;6.78;100.00
33859;BME280;20156;47.486;12.074;2022-11-03T00:55:56;91656.91;;;6.85;100.00
33859;BME280;20156;47.486;12.074;2022-11-03T00:58:21;91716.00;;;6.48;100.00
33859;BME280;20156;47.486;12.074;2022-11-03T01:00:47;91717.50;;;6.54;100.00
33859;BME280;20156;47.486;12.074;2022-11-03T01:03:13;91700.97;;;6.55;100.00
33859;BME280;20156;47.486;12.074;2022-11-03T01:05:40;91685.53;;;6.50;100.00
33859;BME280;20156;47.486;12.074;2022-11-03T01:08:24;91662.78;;;6.52;100.00
33859;BME280;20156;47.486;12.074;2022-11-03T01:10:49;91631.25;;;6.60;100.00
33859;BME280;20156;47.486;12.074;2022-11-03T01:13:33;91558.19;;;6.88;100.00
33859;BME280;20156;47.486;12.074;2022-11-03T01:15:59;91552.59;;;6.81;100.00
33859;BME280;20156;47.486;12.074;2022-11-03T01:18:24;91501.84;;;6.96;100.00
33859;BME280;20156;47.486;12.074;2022-11-03T01:20:54;91524.50;;;6.75;100.00
33859;BME280;20156;47.486;12.074;2022-11-03T01:23:21;91617.75;;;6.29;100.00
33859;BME280;20156;47.486;12.074;2022-11-03T01:25:46;91633.25;;;6.29;100.00
33859;BME280;20156;47.486;12.074;2022-11-03T01:28:11;91613.50;;;6.48;100.00
33859;BME280;20156;47.486;12.074;2022-11-03T01:30:37;91604.66;;;6.59;100.00
33859;BME280;20156;47.486;12.074;2022-11-03T01:33:02;91625.88;;;6.51;100.00
33859;BME280;20156;47.486;12.074;2022-11-03T01:35:28;91617.56;;;6.59;100.00
33859;BME280;20156;47.486;12.074;2022-11-03T01:37:53;91614.19;;;6.64;100.00
33859;BME280;20156;47.486;12.074;2022-11-03T01:40:21;91606.72;;;6.62;100.00
33859;BME280;20156;47.486;12.074;2022-11-03T01:42:46;91604.06;;;6.73;100.00
33859;BME280;20156;47.486;12.074;2022-11-03T01:45:11;91619.56;;;6.68;100.00
33859;BME280;20156;47.486;12.074;2022-11-03T01:47:37;91656.34;;;6.49;100.00
33859;BME280;20156;47.486;12.074;2022-11-03T01:50:09;91675.69;;;6.52;100.00
33859;BME280;20156;47.486;12.074;2022-11-03T01:52:49;91636.59;;;6.74;100.00
33859;BME280;20156;47.486;12.074;2022-11-03T01:55:25;91614.63;;;6.76;100.00
33859;BME280;20156;47.486;12.074;2022-11-03T01:57:58;91682.81;;;6.26;100.00
33859;BME280;20156;47.486;12.074;2022-11-03T02:00:27;91702.44;;;6.22;100.00
33859;BME280;20156;47.486;12.074;2022-11-03T02:02:53;91673.19;;;6.42;100.00
33859;BME280;20156;47.486;12.074;2022-11-03T02:05:21;91654.53;;;6.50;100.00
33859;BME280;20156;47.486;12.074;2022-11-03T02:08:07;91632.63;;;6.47;100.00
33859;BME280;20156;47.486;12.074;2022-11-03T02:10:35;91674.06;;;6.22;100.00
33859;BME280;20156;47.486;12.074;2022-11-03T02:13:07;91687.47;;;6.24;100.00
33859;BME280;20156;47.486;12.074;2022-11-03T02:15:36;91685.13;;;6.27;100.00
33859;BME280;20156;47.486;12.074;2022-11-03T02:18:02;91683.50;;;6.37;100.00
33859;BME280;20156;47.486;12.074;2022-11-03T02:20:31;91695.13;;;6.34;100.00
33859;BME280;20156;47.486;12.074;2022-11-03T02:25:52;91728.25;;;6.17;100.00
33859;BME280;20156;47.486;12.074;2022-11-03T02:28:23;91698.75;;;6.33;100.00
33859;BME280;20156;47.486;12.074;2022-11-03T02:39:00;91673.25;;;6.21;100.00
33859;BME280;20156;47.486;12.074;2022-11-03T02:41:28;91648.44;;;6.30;100.00
33859;BME280;20156;47.486;12.074;2022-11-03T02:43:56;91635.81;;;6.29;100.00
33859;BME280;20156;47.486;12.074;2022-11-03T02:46:24;91699.13;;;5.86;100.00
33859;BME280;20156;47.486;12.074;2022-11-03T02:48:51;91694.03;;;5.91;100.00
33859;BME280;20156;47.486;12.074;2022-11-03T02:51:16;91698.91;;;5.92;100.00
33859;BME280;20156;47.486;12.074;2022-11-03T02:53:58;91675.13;;;6.11;100.00
33859;BME280;20156;47.486;12.074;2022-11-03T02:56:27;91652.38;;;6.23;100.00
33859;BME280;20156;47.486;12.074;2022-11-03T02:59:03;91634.28;;;6.28;100.00
33859;BME280;20156;47.486;12.074;2022-11-03T03:01:36;91656.31;;;6.05;100.00
33859;BME280;20156;47.486;12.074;2022-11-03T03:04:22;91746.91;;;5.58;100.00
33859;BME280;20156;47.486;12.074;2022-11-03T03:07:03;91748.44;;;5.64;100.00
33859;BME280;20156;47.486;12.074;2022-11-03T03:09:36;91729.34;;;5.80;100.00
33859;BME280;20156;47.486;12.074;2022-11-03T03:12:05;91709.72;;;5.84;100.00
33859;BME280;20156;47.486;12.074;2022-11-03T03:14:37;91656.75;;;6.17;100.00
33859;BME280;20156;47.486;12.074;2022-11-03T03:20:02;91717.50;;;5.74;100.00
33859;BME280;20156;47.486;12.074;2022-11-03T03:27:46;91698.66;;;5.68;100.00
33859;BME280;20156;47.486;12.074;2022-11-03T03:30:14;91734.78;;;5.43;100.00
33859;BME280;20156;47.486;12.074;2022-11-03T03:32:45;91697.13;;;5.72;100.00
33859;BME280;20156;47.486;12.074;2022-11-03T03:35:15;91642.16;;;5.97;100.00
33859;BME280;20156;47.486;12.074;2022-11-03T03:37:45;91596.94;;;6.10;100.00
33859;BME280;20156;47.486;12.074;2022-11-03T03:40:14;91586.41;;;6.01;100.00
33859;BME280;20156;47.486;12.074;2022-11-03T03:42:42;91561.28;;;6.17;100.00
33859;BME280;20156;47.486;12.074;2022-11-03T03:45:10;91622.63;;;5.66;100.00
33859;BME280;20156;47.486;12.074;2022-11-03T03:47:36;91625.97;;;5.66;100.00
33859;BME280;20156;47.486;12.074;2022-11-03T03:50:02;91627.78;;;5.61;100.00
33859;BME280;20156;47.486;12.074;2022-11-03T03:52:28;91585.69;;;5.81;100.00
33859;BME280;20156;47.486;12.074;2022-11-03T03:54:55;91559.91;;;5.91;100.00
33859;BME280;20156;47.486;12.074;2022-11-03T03:57:24;91568.16;;;5.83;100.00
33859;BME280;20156;47.486;12.074;2022-11-03T03:59:51;91578.53;;;5.72;100.00
33859;BME280;20156;47.486;12.074;2022-11-03T04:02:16;91580.31;;;5.77;100.00
33859;BME280;20156;47.486;12.074;2022-11-03T04:04:42;91595.03;;;5.71;100.00
33859;BME280;20156;47.486;12.074;2022-11-03T04:07:08;91615.13;;;5.69;100.00
33859;BME280;20156;47.486;12.074;2022-11-03T04:09:52;91616.16;;;5.73;100.00
33859;BME280;20156;47.486;12.074;2022-11-03T04:12:17;91596.50;;;5.88;100.00
33859;BME280;20156;47.486;12.074;2022-11-03T04:15:01;91599.38;;;5.91;100.00
33859;BME280;20156;47.486;12.074;2022-11-03T04:17:46;91721.88;;;5.18;100.00
33859;BME280;20156;47.486;12.074;2022-11-03T04:20:32;91749.19;;;5.19;100.00
33859;BME280;20156;47.486;12.074;2022-11-03T04:23:16;91783.47;;;5.04;100.00
33859;BME280;20156;47.486;12.074;2022-11-03T04:25:53;91770.34;;;5.21;100.00
33859;BME280;20156;47.486;12.074;2022-11-03T04:28:20;91768.28;;;5.28;100.00
33859;BME280;20156;47.486;12.074;2022-11-03T04:30:46;91719.56;;;5.57;100.00
33859;BME280;20156;47.486;12.074;2022-11-03T04:33:19;91691.44;;;5.70;100.00
33859;BME280;20156;47.486;12.074;2022-11-03T04:35:46;91717.50;;;5.54;100.00
33859;BME280;20156;47.486;12.074;2022-11-03T04:40:54;91754.88;;;5.36;100.00
33859;BME280;20156;47.486;12.074;2022-11-03T04:43:22;91725.50;;;5.57;100.00
33859;BME280;20156;47.486;12.074;2022-11-03T04:45:48;91725.25;;;5.59;100.00
33859;BME280;20156;47.486;12.074;2022-11-03T04:48:16;91709.50;;;5.65;100.00
33859;BME280;20156;47.486;12.074;2022-11-03T04:50:45;91755.38;;;5.33;100.00
33859;BME280;20156;47.486;12.074;2022-11-03T04:53:16;91787.06;;;5.13;100.00
33859;BME280;20156;47.486;12.074;2022-11-03T04:55:44;91752.31;;;5.31;100.00
33859;BME280;20156;47.486;12.074;2022-11-03T05:00:42;91734.25;;;5.36;100.00
33859;BME280;20156;47.486;12.074;2022-11-03T05:03:13;91696.63;;;5.50;100.00
33859;BME280;20156;47.486;12.074;2022-11-03T05:05:39;91688.38;;;5.48;100.00
33859;BME280;20156;47.486;12.074;2022-11-03T05:08:08;91668.78;;;5.52;100.00
33859;BME280;20156;47.486;12.074;2022-11-03T05:10:34;91704.91;;;5.27;100.00
33859;BME280;20156;47.486;12.074;2022-11-03T05:13:00;91739.41;;;5.05;100.00
33859;BME280;20156;47.486;12.074;2022-11-03T05:15:37;91755.63;;;5.01;100.00
33859;BME280;20156;47.486;12.074;2022-11-03T05:18:35;91753.84;;;5.06;100.00
33859;BME280;20156;47.486;12.074;2022-11-03T05:21:04;91753.56;;;5.13;100.00
33859;BME280;20156;47.486;12.074;2022-11-03T05:23:37;91751.00;;;5.13;100.00
33859;BME280;20156;47.486;12.074;2022-11-03T05:26:04;91749.75;;;5.21;100.00
33859;BME280;20156;47.486;12.074;2022-11-03T05:28:34;91720.59;;;5.35;100.00
33859;BME280;20156;47.486;12.074;2022-11-03T05:31:00;91680.13;;;5.51;100.00
33859;BME280;20156;47.486;12.074;2022-11-03T05:33:32;91684.78;;;5.44;100.00
33859;BME280;20156;47.486;12.074;2022-11-03T05:36:13;91676.28;;;5.43;100.00
33859;BME280;20156;47.486;12.074;2022-11-03T05:38:41;91703.88;;;5.23;100.00
33859;BME280;20156;47.486;12.074;2022-11-03T05:41:21;91749.19;;;4.93;100.00
33859;BME280;20156;47.486;12.074;2022-11-03T05:43:57;91758.69;;;5.03;100.00
33859;BME280;20156;47.486;12.074;2022-11-03T05:46:27;91749.19;;;5.13;100.00
33859;BME280;20156;47.486;12.074;2022-11-03T05:48:53;91746.63;;;5.13;100.00
33859;BME280;20156;47.486;12.074;2022-11-03T05:51:23;91739.44;;;5.21;100.00
33859;BME280;20156;47.486;12.074;2022-11-03T05:53:54;91754.09;;;5.10;100.00
33859;BME280;20156;47.486;12.074;2022-11-03T05:56:23;91780.34;;;4.92;100.00
33859;BME280;20156;47.486;12.074;2022-11-03T05:58:52;91754.09;;;5.15;100.00
33859;BME280;20156;47.486;12.074;2022-11-03T06:03:46;91745.59;;;5.14;100.00
33859;BME280;20156;47.486;12.074;2022-11-03T06:08:44;91701.78;;;5.35;100.00
33859;BME280;20156;47.486;12.074;2022-11-03T06:11:18;91665.47;;;5.47;100.00
33859;BME280;20156;47.486;12.074;2022-11-03T06:13:45;91655.16;;;5.41;100.00
33859;BME280;20156;47.486;12.074;2022-11-03T06:18:39;91608.47;;;5.53;100.00
33859;BME280;20156;47.486;12.074;2022-11-03T06:21:30;91588.63;;;5.59;100.00
33859;BME280;20156;47.486;12.074;2022-11-03T06:23:57;91637.38;;;5.30;100.00
33859;BME280;20156;47.486;12.074;2022-11-03T06:26:26;91706.94;;;4.94;100.00
33859;BME280;20156;47.486;12.074;2022-11-03T06:28:53;91724.72;;;4.96;100.00
33859;BME280;20156;47.486;12.074;2022-11-03T06:31:30;91691.75;;;5.28;100.00
33859;BME280;20156;47.486;12.074;2022-11-03T06:33:57;91703.34;;;5.36;100.00
33859;BME280;20156;47.486;12.074;2022-11-03T06:36:41;91694.06;;;5.50;100.00
33859;BME280;20156;47.486;12.074;2022-11-03T06:39:20;91688.63;;;5.62;100.00
33859;BME280;20156;47.486;12.074;2022-11-03T06:41:47;91660.25;;;5.77;100.00
33859;BME280;20156;47.486;12.074;2022-11-03T06:44:24;91680.63;;;5.63;100.00
33859;BME280;20156;47.486;12.074;2022-11-03T06:46:53;91672.63;;;5.70;100.00
33859;BME280;20156;47.486;12.074;2022-11-03T06:49:27;91674.41;;;5.80;100.00
33859;BME280;20156;47.486;12.074;2022-11-03T06:51:55;91649.09;;;5.97;100.00
33859;BME280;20156;47.486;12.074;2022-11-03T06:54:20;91649.34;;;6.06;100.00
33859;BME280;20156;47.486;12.074;2022-11-03T06:56:46;91673.13;;;5.92;100.00
33859;BME280;20156;47.486;12.074;2022-11-03T06:59:13;91715.41;;;5.76;100.00
33859;BME280;20156;47.486;12.074;2022-11-03T07:01:40;91703.28;;;5.82;100.00
33859;BME280;20156;47.486;12.074;2022-11-03T07:04:19;91689.09;;;5.94;100.00
33859;BME280;20156;47.486;12.074;2022-11-03T07:06:45;91692.19;;;5.96;100.00
33859;BME280;20156;47.486;12.074;2022-11-03T07:09:23;91687.78;;;6.02;100.00
33859;BME280;20156;47.486;12.074;2022-11-03T07:11:53;91672.28;;;6.12;100.00
33859;BME280;20156;47.486;12.074;2022-11-03T07:14:21;91684.44;;;6.07;100.00
33859;BME280;20156;47.486;12.074;2022-11-03T07:16:49;91700.16;;;6.00;100.00
33859;BME280;20156;47.486;12.074;2022-11-03T07:19:28;91693.97;;;6.06;100.00
33859;BME280;20156;47.486;12.074;2022-11-03T07:22:00;91686.41;;;6.20;100.00
33859;BME280;20156;47.486;12.074;2022-11-03T07:24:37;91683.53;;;6.31;100.00
33859;BME280;20156;47.486;12.074;2022-11-03T07:27:37;91722.06;;;6.13;100.00
33859;BME280;20156;47.486;12.074;2022-11-03T07:30:19;91722.28;;;6.21;100.00
33859;BME280;20156;47.486;12.074;2022-11-03T07:32:47;91710.88;;;6.38;100.00
33859;BME280;20156;47.486;12.074;2022-11-03T07:37:45;91714.16;;;6.53;100.00
33859;BME280;20156;47.486;12.074;2022-11-03T07:40:21;91699.41;;;6.64;100.00
33859;BME280;20156;47.486;12.074;2022-11-03T07:42:47;91715.16;;;6.62;100.00
33859;BME280;20156;47.486;12.074;2022-11-03T07:45:57;91753.97;;;6.42;100.00
33859;BME280;20156;47.486;12.074;2022-11-03T07:48:32;91750.09;;;6.45;100.00
33859;BME280;20156;47.486;12.074;2022-11-03T07:51:00;91758.88;;;6.44;100.00
33859;BME280;20156;47.486;12.074;2022-11-03T07:53:44;91750.06;;;6.50;100.00
33859;BME280;20156;47.486;12.074;2022-11-03T07:56:18;91728.56;;;6.64;100.00
33859;BME280;20156;47.486;12.074;2022-11-03T07:58:44;91712.25;;;6.74;100.00
33859;BME280;20156;47.486;12.074;2022-11-03T08:01:42;91715.13;;;6.73;100.00
33859;BME280;20156;47.486;12.074;2022-11-03T08:04:22;91717.13;;;6.81;100.00
33859;BME280;20156;47.486;12.074;2022-11-03T08:06:49;91725.34;;;6.88;100.00
33859;BME280;20156;47.486;12.074;2022-11-03T08:09:15;91742.69;;;6.82;100.00
33859;BME280;20156;47.486;12.074;2022-11-03T08:11:41;91744.50;;;6.82;100.00
33859;BME280;20156;47.486;12.074;2022-11-03T08:14:06;91762.38;;;6.73;100.00
33859;BME280;20156;47.486;12.074;2022-11-03T08:16:32;91760.84;;;6.72;100.00
33859;BME280;20156;47.486;12.074;2022-11-03T08:18:57;91741.38;;;6.85;100.00
33859;BME280;20156;47.486;12.074;2022-11-03T08:21:22;91715.72;;;6.99;100.00
33859;BME280;20156;47.486;12.074;2022-11-03T08:23:48;91703.25;;;7.11;100.00
33859;BME280;20156;47.486;12.074;2022-11-03T08:26:14;91690.28;;;7.16;100.00
33859;BME280;20156;47.486;12.074;2022-11-03T08:28:39;91669.72;;;7.35;100.00
33859;BME280;20156;47.486;12.074;2022-11-03T08:31:05;91675.44;;;7.32;100.00
33859;BME280;20156;47.486;12.074;2022-11-03T08:33:31;91675.34;;;7.42;100.00
33859;BME280;20156;47.486;12.074;2022-11-03T08:35:57;91683.84;;;7.47;100.00
33859;BME280;20156;47.486;12.074;2022-11-03T08:38:23;91677.00;;;7.62;100.00
33859;BME280;20156;47.486;12.074;2022-11-03T08:40:48;91674.03;;;7.73;100.00
33859;BME280;20156;47.486;12.074;2022-11-03T08:43:14;91668.69;;;7.89;100.00
33859;BME280;20156;47.486;12.074;2022-11-03T08:45:40;91677.19;;;7.94;100.00
33859;BME280;20156;47.486;12.074;2022-11-03T08:48:05;91684.53;;;8.06;100.00
33859;BME280;20156;47.486;12.074;2022-11-03T08:50:31;91695.56;;;8.17;100.00
33859;BME280;20156;47.486;12.074;2022-11-03T08:52:58;91689.66;;;8.40;100.00
33859;BME280;20156;47.486;12.074;2022-11-03T08:55:24;91694.09;;;8.58;100.00
33859;BME280;20156;47.486;12.074;2022-11-03T08:57:50;91719.84;;;8.68;100.00
33859;BME280;20156;47.486;12.074;2022-11-03T09:00:16;91741.53;;;8.96;100.00
33859;BME280;20156;47.486;12.074;2022-11-03T09:02:43;91769.84;;;9.30;100.00
33859;BME280;20156;47.486;12.074;2022-11-03T09:05:10;91827.69;;;9.50;100.00
33859;BME280;20156;47.486;12.074;2022-11-03T09:07:37;91881.59;;;9.53;100.00
33859;BME280;20156;47.486;12.074;2022-11-03T09:10:05;91916.19;;;9.67;100.00
33859;BME280;20156;47.486;12.074;2022-11-03T09:12:31;91949.75;;;9.82;100.00
33859;BME280;20156;47.486;12.074;2022-11-03T09:14:57;91996.94;;;10.08;100.00
33859;BME280;20156;47.486;12.074;2022-11-03T09:17:22;92026.44;;;10.36;100.00
33859;BME280;20156;47.486;12.074;2022-11-03T09:19:48;92083.63;;;10.55;100.00
33859;BME280;20156;47.486;12.074;2022-11-03T09:22:13;92143.41;;;10.74;100.00
33859;BME280;20156;47.486;12.074;2022-11-03T09:24:39;92210.97;;;10.98;100.00
33859;BME280;20156;47.486;12.074;2022-11-03T09:27:05;92280.47;;;11.16;100.00
33859;BME280;20156;47.486;12.074;2022-11-03T09:29:30;92349.47;;;11.08;100.00
33859;BME280;20156;47.486;12.074;2022-11-03T09:31:56;92406.34;;;10.33;100.00
33859;BME280;20156;47.486;12.074;2022-11-03T09:34:21;92338.72;;;10.38;100.00
33859;BME280;20156;47.486;12.074;2022-11-03T09:36:47;92282.88;;;10.89;100.00
33859;BME280;20156;47.486;12.074;2022-11-03T09:39:12;92279.00;;;11.29;100.00
33859;BME280;20156;47.486;12.074;2022-11-03T09:41:38;92317.84;;;11.44;100.00
33859;BME280;20156;47.486;12.074;2022-11-03T09:44:04;92367.06;;;11.40;100.00
33859;BME280;20156;47.486;12.074;2022-11-03T09:46:29;92434.16;;;11.49;100.00
33859;BME280;20156;47.486;12.074;2022-11-03T09:48:55;92458.47;;;11.87;100.00
33859;BME280;20156;47.486;12.074;2022-11-03T09:51:22;92608.19;;;11.94;100.00
33859;BME280;20156;47.486;12.074;2022-11-03T09:53:49;92699.31;;;12.28;100.00
33859;BME280;20156;47.486;12.074;2022-11-03T09:56:17;92741.59;;;12.49;100.00
33859;BME280;20156;47.486;12.074;2022-11-03T09:58:43;92781.91;;;12.62;100.00
33859;BME280;20156;47.486;12.074;2022-11-03T10:01:10;92818.81;;;12.74;100.00
33859;BME280;20156;47.486;12.074;2022-11-03T10:03:36;92893.63;;;12.50;100.00
33859;BME280;20156;47.486;12.074;2022-11-03T10:06:03;92873.03;;;12.14;100.00
33859;BME280;20156;47.486;12.074;2022-11-03T10:08:31;92851.19;;;12.44;100.00
33859;BME280;20156;47.486;12.074;2022-11-03T10:10:57;92850.88;;;12.80;100.00
33859;BME280;20156;47.486;12.074;2022-11-03T10:13:32;92882.19;;;12.75;100.00
33859;BME280;20156;47.486;12.074;2022-11-03T10:16:04;92887.69;;;12.73;100.00
33859;BME280;20156;47.486;12.074;2022-11-03T10:18:31;92881.69;;;13.02;100.00
33859;BME280;20156;47.486;12.074;2022-11-03T10:21:03;92876.81;;;13.24;100.00
33859;BME280;20156;47.486;12.074;2022-11-03T10:23:29;92910.69;;;13.00;100.00
33859;BME280;20156;47.486;12.074;2022-11-03T10:26:07;92905.34;;;13.15;100.00
33859;BME280;20156;47.486;12.074;2022-11-03T10:28:33;92923.16;;;13.37;100.00
33859;BME280;20156;47.486;12.074;2022-11-03T10:31:03;92970.63;;;13.44;100.00
33859;BME280;20156;47.486;12.074;2022-11-03T10:33:38;92967.66;;;13.27;100.00
33859;BME280;20156;47.486;12.074;2022-11-03T10:38:39;93063.59;;;13.45;100.00
33859;BME280;20156;47.486;12.074;2022-11-03T10:41:19;93184.50;;;13.51;100.00
33859;BME280;20156;47.486;12.074;2022-11-03T10:46:37;93392.25;;;13.93;100.00
33859;BME280;20156;47.486;12.074;2022-11-03T10:51:35;93535.16;;;14.33;100.00
33859;BME280;20156;47.486;12.074;2022-11-03T10:54:05;93602.66;;;14.26;100.00
33859;BME280;20156;47.486;12.074;2022-11-03T10:56:34;93524.00;;;14.02;100.00
33859;BME280;20156;47.486;12.074;2022-11-03T10:58:59;93406.34;;;14.02;100.00
33859;BME280;20156;47.486;12.074;2022-11-03T11:01:25;93354.34;;;14.00;100.00
33859;BME280;20156;47.486;12.074;2022-11-03T11:03:51;93334.56;;;14.23;100.00
33859;BME280;20156;47.486;12.074;2022-11-03T11:06:22;93411.66;;;14.75;100.00
33859;BME280;20156;47.486;12.074;2022-11-03T11:08:51;93477.63;;;14.77;100.00
33859;BME280;20156;47.486;12.074;2022-11-03T11:11:20;93484.44;;;14.78;100.00
33859;BME280;20156;47.486;12.074;2022-11-03T11:16:53;93534.69;;;14.80;100.00
33859;BME280;20156;47.486;12.074;2022-11-03T11:19:20;93615.00;;;14.90;100.00
33859;BME280;20156;47.486;12.074;2022-11-03T11:24:12;93726.03;;;14.89;100.00
33859;BME280;20156;47.486;12.074;2022-11-03T11:26:38;93714.22;;;15.01;100.00
33859;BME280;20156;47.486;12.074;2022-11-03T11:31:39;93681.44;;;15.58;100.00
33859;BME280;20156;47.486;12.074;2022-11-03T11:36:40;93679.63;;;15.59;100.00
33859;BME280;20156;47.486;12.074;2022-11-03T11:42:06;93605.47;;;15.53;100.00
33859;BME280;20156;47.486;12.074;2022-11-03T11:52:42;93620.84;;;15.70;100.00
33859;BME280;20156;47.486;12.074;2022-11-03T11:57:51;93609.84;;;15.68;100.00
33859;BME280;20156;47.486;12.074;2022-11-03T12:00:19;93651.19;;;15.81;100.00
33859;BME280;20156;47.486;12.074;2022-11-03T12:02:46;93664.25;;;15.86;100.00
33859;BME280;20156;47.486;12.074;2022-11-03T12:05:38;93792.91;;;16.05;100.00
33859;BME280;20156;47.486;12.074;2022-11-03T12:08:16;93812.22;;;16.19;100.00
33859;BME280;20156;47.486;12.074;2022-11-03T12:10:54;93926.16;;;16.08;100.00
33859;BME280;20156;47.486;12.074;2022-11-03T12:13:47;93890.19;;;16.19;100.00
33859;BME280;20156;47.486;12.074;2022-11-03T12:16:45;93829.78;;;16.24;100.00
33859;BME280;20156;47.486;12.074;2022-11-03T12:19:36;93843.22;;;16.17;100.00
33859;BME280;20156;47.486;12.074;2022-11-03T12:22:51;93850.41;;;16.41;100.00
33859;BME280;20156;47.486;12.074;2022-11-03T12:24:56;93785.84;;;16.40;100.00
33859;BME280;20156;47.486;12.074;2022-11-03T12:29:51;93843.53;;;16.45;100.00
33859;BME280;20156;47.486;12.074;2022-11-03T12:32:17;93880.06;;;16.46;100.00
33859;BME280;20156;47.486;12.074;2022-11-03T12:34:42;93888.84;;;16.21;100.00
33859;BME280;20156;47.486;12.074;2022-11-03T12:37:08;93892.25;;;16.22;100.00
33859;BME280;20156;47.486;12.074;2022-11-03T12:39:33;93849.09;;;16.38;100.00
33859;BME280;20156;47.486;12.074;2022-11-03T12:41:59;93826.19;;;16.10;100.00
33859;BME280;20156;47.486;12.074;2022-11-03T12:44:24;93710.72;;;15.81;100.00
33859;BME280;20156;47.486;12.074;2022-11-03T12:46:50;93638.91;;;15.72;100.00
33859;BME280;20156;47.486;12.074;2022-11-03T12:49:15;93619.31;;;15.98;100.00
33859;BME280;20156;47.486;12.074;2022-11-03T12:51:41;93572.13;;;15.93;100.00
33859;BME280;20156;47.486;12.074;2022-11-03T12:54:06;93535.94;;;15.66;100.00
33859;BME280;20156;47.486;12.074;2022-11-03T12:56:31;93398.09;;;15.84;100.00
33859;BME280;20156;47.486;12.074;2022-11-03T12:58:57;93434.56;;;16.23;100.00
33859;BME280;20156;47.486;12.074;2022-11-03T13:01:22;93441.69;;;16.41;100.00
33859;BME280;20156;47.486;12.074;2022-11-03T13:03:48;93488.91;;;16.65;100.00
33859;BME280;20156;47.486;12.074;2022-11-03T13:06:13;93576.25;;;16.95;100.00
33859;BME280;20156;47.486;12.074;2022-11-03T13:08:39;93686.03;;;16.74;100.00
33859;BME280;20156;47.486;12.074;2022-11-03T13:11:05;93704.81;;;16.86;100.00
33859;BME280;20156;47.486;12.074;2022-11-03T13:13:53;93687.03;;;17.02;100.00
33859;BME280;20156;47.486;12.074;2022-11-03T13:16:19;93751.75;;;16.98;100.00
33859;BME280;20156;47.486;12.074;2022-11-03T13:18:45;93755.88;;;17.04;100.00
33859;BME280;20156;47.486;12.074;2022-11-03T13:21:10;93780.53;;;17.08;100.00
33859;BME280;20156;47.486;12.074;2022-11-03T13:23:38;93713.38;;;16.97;100.00
33859;BME280;20156;47.486;12.074;2022-11-03T13:26:03;93615.38;;;16.96;100.00
33859;BME280;20156;47.486;12.074;2022-11-03T13:28:28;93579.66;;;16.95;100.00
33859;BME280;20156;47.486;12.074;2022-11-03T13:30:54;93580.78;;;16.89;100.00
33859;BME280;20156;47.486;12.074;2022-11-03T13:33:19;93486.72;;;16.72;100.00
33859;BME280;20156;47.486;12.074;2022-11-03T13:35:44;93457.31;;;16.51;100.00
33859;BME280;20156;47.486;12.074;2022-11-03T13:38:10;93409.91;;;16.43;100.00
33859;BME280;20156;47.486;12.074;2022-11-03T13:40:35;93379.69;;;16.08;100.00
33859;BME280;20156;47.486;12.074;2022-11-03T13:43:01;93355.69;;;15.95;100.00
33859;BME280;20156;47.486;12.074;2022-11-03T13:45:26;93232.94;;;15.79;100.00
33859;BME280;20156;47.486;12.074;2022-11-03T13:47:52;93139.50;;;15.69;100.00
33859;BME280;20156;47.486;12.074;2022-11-03T13:50:17;93120.44;;;15.63;100.00
33859;BME280;20156;47.486;12.074;2022-11-03T13:52:43;93187.94;;;15.34;100.00
33859;BME280;20156;47.486;12.074;2022-11-03T13:55:10;93084.25;;;15.09;100.00
33859;BME280;20156;47.486;12.074;2022-11-03T13:57:35;93001.41;;;14.99;100.00
33859;BME280;20156;47.486;12.074;2022-11-03T14:00:04;93010.34;;;14.98;100.00
33859;BME280;20156;47.486;12.074;2022-11-03T14:02:30;93110.91;;;14.97;100.00
33859;BME280;20156;47.486;12.074;2022-11-03T14:04:55;93146.00;;;15.15;100.00
33859;BME280;20156;47.486;12.074;2022-11-03T14:07:20;93158.94;;;15.07;100.00
33859;BME280;20156;47.486;12.074;2022-11-03T14:09:46;93124.03;;;15.11;100.00